createdAt,value
2017-10-18T00:00:04.171Z,0
2017-10-18T00:01:14.629Z,0
2017-10-18T00:02:25.028Z,0
2017-10-18T00:03:35.426Z,0
2017-10-18T00:04:45.884Z,0
2017-10-18T00:05:56.298Z,0
2017-10-18T00:07:06.371Z,0
2017-10-18T00:08:16.795Z,0
2017-10-18T00:09:26.860Z,0
2017-10-18T00:10:37.264Z,0
2017-10-18T00:11:47.342Z,0
2017-10-18T00:12:57.729Z,0
2017-10-18T00:14:08.133Z,0
2017-10-18T00:15:18.542Z,0
2017-10-18T00:16:28.613Z,0
2017-10-18T00:17:39.017Z,0
2017-10-18T00:18:49.114Z,0
2017-10-18T00:19:59.525Z,0
2017-10-18T00:21:09.594Z,0
2017-10-18T00:22:20.009Z,0
2017-10-18T00:23:30.082Z,0
2017-10-18T00:24:40.484Z,0
2017-10-18T00:25:50.888Z,0
2017-10-18T00:27:01.283Z,0
2017-10-18T00:28:11.685Z,0
2017-10-18T00:29:21.756Z,0
2017-10-18T00:30:32.157Z,0
2017-10-18T00:31:42.555Z,0
2017-10-18T00:32:52.958Z,0
2017-10-18T00:34:03.376Z,0
2017-10-18T00:35:13.785Z,0
2017-10-18T00:36:24.199Z,0
2017-10-18T00:37:34.273Z,0
2017-10-18T00:38:44.686Z,0
2017-10-18T00:39:54.820Z,0
2017-10-18T00:41:05.224Z,0
2017-10-18T00:42:15.625Z,0
2017-10-18T00:43:25.697Z,0
2017-10-18T00:44:36.099Z,0
2017-10-18T00:45:46.546Z,0
2017-10-18T00:46:56.975Z,0
2017-10-18T00:48:07.418Z,0
2017-10-18T00:49:17.490Z,0
2017-10-18T00:50:27.882Z,0
2017-10-18T00:51:37.988Z,0
2017-10-18T00:52:48.406Z,0
2017-10-18T00:53:58.815Z,0
2017-10-18T00:55:08.870Z,0
2017-10-18T00:56:19.286Z,0
2017-10-18T00:57:29.398Z,0
2017-10-18T00:58:39.135Z,0
2017-10-18T00:59:49.533Z,0
2017-10-18T01:00:59.610Z,0
2017-10-18T01:02:10.025Z,0
2017-10-18T01:03:20.426Z,0
2017-10-18T01:04:30.834Z,0
2017-10-18T01:05:40.913Z,0
2017-10-18T01:06:50.977Z,0
2017-10-18T01:08:01.386Z,0
2017-10-18T01:09:11.455Z,0
2017-10-18T01:10:21.873Z,0
2017-10-18T01:11:31.953Z,0
2017-10-18T01:12:42.022Z,0
2017-10-18T01:13:52.413Z,0
2017-10-18T01:15:02.535Z,0
2017-10-18T01:16:12.938Z,0
2017-10-18T01:17:23.333Z,0
2017-10-18T01:18:33.745Z,0
2017-10-18T01:19:43.835Z,0
2017-10-18T01:20:53.942Z,0
2017-10-18T01:22:04.337Z,0
2017-10-18T01:23:14.734Z,0
2017-10-18T01:24:25.148Z,0
2017-10-18T01:25:35.570Z,0
2017-10-18T01:26:45.697Z,0
2017-10-18T01:27:55.453Z,0
2017-10-18T01:29:05.525Z,0
2017-10-18T01:30:15.630Z,0
2017-10-18T01:31:25.714Z,0
2017-10-18T01:32:36.170Z,0
2017-10-18T01:33:45.573Z,0
2017-10-18T01:34:55.984Z,0
2017-10-18T01:36:06.377Z,0
2017-10-18T01:37:16.794Z,0
2017-10-18T01:38:27.193Z,0
2017-10-18T01:39:37.262Z,0
2017-10-18T01:40:47.674Z,0
2017-10-18T01:41:57.737Z,0
2017-10-18T01:43:08.136Z,0
2017-10-18T01:44:18.299Z,0
2017-10-18T01:45:28.716Z,0
2017-10-18T01:46:38.796Z,0
2017-10-18T01:47:49.190Z,0
2017-10-18T01:48:59.286Z,0
2017-10-18T01:50:09.706Z,0
2017-10-18T01:51:20.106Z,0
2017-10-18T01:52:30.501Z,0
2017-10-18T01:53:40.572Z,0
2017-10-18T01:54:50.974Z,0
2017-10-18T01:56:00.732Z,0
2017-10-18T01:57:11.162Z,0
2017-10-18T01:58:21.567Z,0
2017-10-18T01:59:31.995Z,0
2017-10-18T02:00:42.069Z,0
2017-10-18T02:01:51.520Z,0
2017-10-18T02:03:01.610Z,0
2017-10-18T02:04:11.679Z,0
2017-10-18T02:05:21.757Z,0
2017-10-18T02:06:32.167Z,0
2017-10-18T02:07:42.581Z,0
2017-10-18T02:08:52.968Z,0
2017-10-18T02:10:03.368Z,0
2017-10-18T02:11:13.766Z,0
2017-10-18T02:12:24.166Z,0
2017-10-18T02:13:34.726Z,0
2017-10-18T02:14:45.126Z,0
2017-10-18T02:15:55.531Z,0
2017-10-18T02:17:05.928Z,0
2017-10-18T02:18:16.001Z,0
2017-10-18T02:19:26.063Z,0
2017-10-18T02:20:36.463Z,0
2017-10-18T02:21:46.854Z,0
2017-10-18T02:22:57.262Z,0
2017-10-18T02:24:07.666Z,0
2017-10-18T02:25:18.052Z,0
2017-10-18T02:26:28.440Z,0
2017-10-18T02:27:38.844Z,0
2017-10-18T02:28:49.225Z,0
2017-10-18T02:29:59.618Z,0
2017-10-18T02:31:10.039Z,0
2017-10-18T02:32:20.470Z,0
2017-10-18T02:33:30.858Z,0
2017-10-18T02:34:41.264Z,0
2017-10-18T02:35:51.652Z,0
2017-10-18T02:37:02.102Z,0
2017-10-18T02:38:12.528Z,0
2017-10-18T02:39:22.934Z,0
2017-10-18T02:40:33.558Z,0
2017-10-18T02:41:43.970Z,0
2017-10-18T02:42:54.043Z,0
2017-10-18T02:44:04.453Z,0
2017-10-18T02:45:14.857Z,0
2017-10-18T02:46:25.266Z,0
2017-10-18T02:47:35.343Z,0
2017-10-18T02:48:45.457Z,0
2017-10-18T02:49:55.514Z,0
2017-10-18T02:51:05.915Z,0
2017-10-18T02:52:15.986Z,0
2017-10-18T02:53:26.388Z,0
2017-10-18T02:54:36.780Z,0
2017-10-18T02:55:47.180Z,0
2017-10-18T02:56:57.248Z,0
2017-10-18T02:58:07.651Z,0
2017-10-18T02:59:18.062Z,0
2017-10-18T03:00:28.503Z,0
2017-10-18T03:01:38.572Z,0
2017-10-18T03:33:35.727Z,0
2017-10-18T03:34:46.114Z,0
2017-10-18T03:35:56.187Z,0
2017-10-18T03:37:06.594Z,0
2017-10-18T03:38:16.980Z,0
2017-10-18T03:39:27.092Z,0
2017-10-18T03:40:37.153Z,0
2017-10-18T03:41:47.540Z,0
2017-10-18T03:42:57.944Z,0
2017-10-18T03:44:08.330Z,0
2017-10-18T03:45:18.723Z,0
2017-10-18T03:46:29.127Z,0
2017-10-18T03:47:38.878Z,0
2017-10-18T03:48:49.276Z,0
2017-10-18T03:49:59.679Z,0
2017-10-18T03:51:10.234Z,0
2017-10-18T03:52:20.300Z,0
2017-10-18T03:53:30.708Z,0
2017-10-18T03:54:40.761Z,0
2017-10-18T03:55:50.831Z,0
2017-10-18T03:57:00.906Z,0
2017-10-18T03:58:10.983Z,0
2017-10-18T03:59:21.037Z,0
2017-10-18T04:00:31.433Z,0
2017-10-18T04:01:41.843Z,0
2017-10-18T04:02:52.283Z,0
2017-10-18T04:04:02.680Z,0
2017-10-18T04:05:13.081Z,0
2017-10-18T04:06:23.153Z,0
2017-10-18T04:07:33.214Z,0
2017-10-18T04:08:43.673Z,0
2017-10-18T04:09:53.752Z,0
2017-10-18T04:11:04.150Z,0
2017-10-18T04:12:14.251Z,0
2017-10-18T04:13:24.321Z,0
2017-10-18T04:14:34.779Z,0
2017-10-18T04:15:44.857Z,0
2017-10-18T04:16:55.252Z,0
2017-10-18T04:18:04.980Z,0
2017-10-18T04:19:15.382Z,0
2017-10-18T04:20:25.837Z,0
2017-10-18T04:21:35.893Z,0
2017-10-18T04:22:46.293Z,0
2017-10-18T04:23:56.700Z,0
2017-10-18T04:25:07.091Z,0
2017-10-18T04:26:17.222Z,0
2017-10-18T04:27:27.629Z,0
2017-10-18T04:28:38.012Z,0
2017-10-18T04:29:48.086Z,0
2017-10-18T04:30:58.499Z,0
2017-10-18T04:32:08.892Z,0
2017-10-18T04:33:18.968Z,0
2017-10-18T04:34:29.035Z,0
2017-10-18T04:35:39.427Z,0
2017-10-18T04:36:49.829Z,0
2017-10-18T04:37:59.943Z,0
2017-10-18T04:39:10.382Z,0
2017-10-18T04:40:20.803Z,0
2017-10-18T04:41:31.205Z,0
2017-10-18T04:42:41.268Z,0
2017-10-18T04:43:51.684Z,0
2017-10-18T04:45:02.086Z,0
2017-10-18T04:46:12.487Z,0
2017-10-18T04:47:22.575Z,0
2017-10-18T04:48:32.975Z,0
2017-10-18T04:49:42.730Z,4
2017-10-18T04:50:52.795Z,4
2017-10-18T04:52:03.201Z,0
2017-10-18T04:53:13.614Z,0
2017-10-18T04:54:24.022Z,4
2017-10-18T04:55:34.245Z,0
2017-10-18T04:56:44.649Z,4
2017-10-18T04:57:55.072Z,4
2017-10-18T04:59:05.140Z,8
2017-10-18T05:00:15.543Z,8
2017-10-18T05:01:26.023Z,4
2017-10-18T05:02:36.444Z,8
2017-10-18T05:03:46.855Z,12
2017-10-18T05:04:56.938Z,16
2017-10-18T05:06:07.326Z,20
2017-10-18T05:07:17.749Z,24
2017-10-18T05:08:28.195Z,28
2017-10-18T05:09:38.584Z,36
2017-10-18T05:10:48.994Z,44
2017-10-18T05:11:59.417Z,44
2017-10-18T05:13:09.826Z,48
2017-10-18T05:14:21.375Z,52
2017-10-18T05:15:31.763Z,56
2017-10-18T05:16:41.835Z,64
2017-10-18T05:17:51.921Z,68
2017-10-18T05:19:02.038Z,76
2017-10-18T05:20:12.453Z,84
2017-10-18T05:21:22.537Z,92
2017-10-18T05:22:32.614Z,104
2017-10-18T05:23:43.009Z,116
2017-10-18T05:24:53.415Z,124
2017-10-18T05:26:03.165Z,140
2017-10-18T05:27:13.572Z,152
2017-10-18T05:28:23.952Z,168
2017-10-18T05:29:34.009Z,184
2017-10-18T05:30:44.129Z,200
2017-10-18T05:31:54.535Z,216
2017-10-18T05:33:04.940Z,236
2017-10-18T05:34:15.338Z,256
2017-10-18T05:35:25.753Z,272
2017-10-18T05:36:35.826Z,288
2017-10-18T05:37:46.242Z,308
2017-10-18T05:38:56.647Z,328
2017-10-18T05:40:07.036Z,348
2017-10-18T05:41:17.460Z,372
2017-10-18T05:42:27.591Z,392
2017-10-18T05:43:38.009Z,412
2017-10-18T05:44:48.086Z,432
2017-10-18T05:45:58.153Z,456
2017-10-18T05:47:07.561Z,480
2017-10-18T05:48:18.017Z,504
2017-10-18T05:49:28.423Z,528
2017-10-18T05:50:38.827Z,552
2017-10-18T05:51:49.228Z,572
2017-10-18T05:52:59.295Z,592
2017-10-18T05:54:09.427Z,608
2017-10-18T05:55:19.821Z,624
2017-10-18T05:56:30.273Z,652
2017-10-18T05:57:40.694Z,712
2017-10-18T05:58:50.762Z,760
2017-10-18T06:00:01.216Z,776
2017-10-18T06:01:11.287Z,788
2017-10-18T06:02:21.367Z,808
2017-10-18T06:03:31.774Z,828
2017-10-18T06:04:42.174Z,844
2017-10-18T06:05:52.568Z,904
2017-10-18T06:07:02.300Z,944
2017-10-18T06:08:12.705Z,948
2017-10-18T06:09:22.775Z,1016
2017-10-18T06:10:33.182Z,1092
2017-10-18T06:11:43.598Z,1092
2017-10-18T06:12:53.663Z,1168
2017-10-18T06:14:04.090Z,1264
2017-10-18T06:15:14.488Z,1276
2017-10-18T06:16:24.888Z,1272
2017-10-18T06:17:35.345Z,1296
2017-10-18T06:18:45.742Z,1340
2017-10-18T06:19:56.154Z,1404
2017-10-18T06:21:06.568Z,1452
2017-10-18T06:22:16.988Z,1512
2017-10-18T06:23:27.380Z,1488
2017-10-18T06:24:37.774Z,1376
2017-10-18T06:25:48.195Z,1564
2017-10-18T06:26:58.600Z,1640
2017-10-18T06:28:08.353Z,1656
2017-10-18T06:29:18.486Z,1644
2017-10-18T06:30:28.882Z,1640
2017-10-18T06:31:38.961Z,1656
2017-10-18T06:32:49.362Z,1676
2017-10-18T06:33:59.427Z,1628
2017-10-18T06:35:09.844Z,1596
2017-10-18T06:36:20.254Z,1604
2017-10-18T06:37:30.650Z,1568
2017-10-18T06:38:41.061Z,1536
2017-10-18T06:39:51.135Z,1500
2017-10-18T06:41:01.585Z,1396
2017-10-18T06:42:11.999Z,1232
2017-10-18T06:43:22.419Z,1152
2017-10-18T06:44:32.819Z,1152
2017-10-18T06:45:42.887Z,1204
2017-10-18T06:46:53.012Z,1188
2017-10-18T06:48:03.443Z,1184
2017-10-18T06:49:13.838Z,1156
2017-10-18T06:50:23.920Z,1148
2017-10-18T06:51:34.306Z,1160
2017-10-18T06:52:44.397Z,1216
2017-10-18T06:53:54.505Z,1264
2017-10-18T06:55:04.914Z,1472
2017-10-18T06:56:15.013Z,1456
2017-10-18T06:57:25.407Z,1340
2017-10-18T06:58:35.473Z,1412
2017-10-18T06:59:45.893Z,1312
2017-10-18T07:00:56.300Z,1592
2017-10-18T07:02:06.715Z,1460
2017-10-18T07:03:17.141Z,1300
2017-10-18T07:04:28.097Z,1420
2017-10-18T07:05:38.187Z,1664
2017-10-18T07:06:48.568Z,1688
2017-10-18T07:07:58.667Z,1540
2017-10-18T07:09:08.738Z,1576
2017-10-18T07:10:19.320Z,1496
2017-10-18T07:11:29.717Z,1712
2017-10-18T07:12:40.122Z,1864
2017-10-18T07:13:50.564Z,1784
2017-10-18T07:15:00.650Z,1352
2017-10-18T07:16:11.059Z,1384
2017-10-18T07:17:21.467Z,1492
2017-10-18T07:18:31.539Z,1628
2017-10-18T07:19:41.940Z,1772
2017-10-18T07:20:52.330Z,1844
2017-10-18T07:22:02.886Z,1692
2017-10-18T07:23:13.299Z,1832
2017-10-18T07:24:23.385Z,2000
2017-10-18T07:25:33.802Z,2012
2017-10-18T07:26:44.225Z,1828
2017-10-18T07:27:54.627Z,1624
2017-10-18T07:29:04.723Z,1512
2017-10-18T07:30:15.105Z,1488
2017-10-18T07:31:25.210Z,1684
2017-10-18T07:32:34.970Z,1876
2017-10-18T07:33:45.435Z,1860
2017-10-18T07:34:55.854Z,1884
2017-10-18T07:36:05.941Z,1916
2017-10-18T07:37:16.327Z,1916
2017-10-18T07:38:26.716Z,1956
2017-10-18T07:39:37.164Z,1860
2017-10-18T07:40:47.556Z,1840
2017-10-18T07:41:57.633Z,1800
2017-10-18T07:43:08.044Z,1844
2017-10-18T07:44:18.501Z,1816
2017-10-18T07:45:28.569Z,1752
2017-10-18T07:46:38.635Z,1656
2017-10-18T07:47:48.721Z,1644
2017-10-18T07:48:59.107Z,1760
2017-10-18T07:50:09.180Z,1820
2017-10-18T07:51:19.616Z,1796
2017-10-18T07:52:30.008Z,1764
2017-10-18T07:53:40.445Z,1836
2017-10-18T07:54:50.522Z,1896
2017-10-18T07:56:00.603Z,1876
2017-10-18T07:57:10.678Z,1816
2017-10-18T07:58:21.083Z,1760
2017-10-18T07:59:31.486Z,1648
2017-10-18T08:00:41.570Z,1516
2017-10-18T08:01:51.983Z,1488
2017-10-18T08:03:02.389Z,1500
2017-10-18T08:04:12.472Z,1416
2017-10-18T08:05:22.907Z,1328
2017-10-18T08:06:32.994Z,1460
2017-10-18T08:07:43.421Z,1556
2017-10-18T08:08:53.210Z,1480
2017-10-18T08:10:03.618Z,1500
2017-10-18T08:11:14.015Z,1428
2017-10-18T08:12:24.419Z,1296
2017-10-18T08:13:34.492Z,1248
2017-10-18T08:14:44.899Z,1268
2017-10-18T08:15:55.300Z,1360
2017-10-18T08:17:05.368Z,1484
2017-10-18T08:18:15.781Z,1512
2017-10-18T08:19:26.184Z,1520
2017-10-18T08:20:35.650Z,1492
2017-10-18T08:21:45.717Z,1440
2017-10-18T08:22:56.120Z,1424
2017-10-18T08:24:06.214Z,1344
2017-10-18T08:25:16.314Z,1348
2017-10-18T08:26:26.775Z,1364
2017-10-18T08:27:37.184Z,1376
2017-10-18T08:28:47.261Z,1388
2017-10-18T08:29:57.331Z,1368
2017-10-18T08:31:07.425Z,1228
2017-10-18T08:32:17.170Z,1248
2017-10-18T08:33:27.582Z,1372
2017-10-18T08:34:37.695Z,1332
2017-10-18T08:35:48.098Z,1432
2017-10-18T08:36:58.507Z,1560
2017-10-18T08:38:08.948Z,1368
2017-10-18T08:39:19.349Z,1540
2017-10-18T08:40:29.756Z,1580
2017-10-18T08:41:40.161Z,1676
2017-10-18T08:42:50.566Z,1792
2017-10-18T08:44:01.007Z,1920
2017-10-18T08:45:11.408Z,2020
2017-10-18T08:46:21.511Z,2116
2017-10-18T08:47:31.927Z,2228
2017-10-18T08:48:42.328Z,2148
2017-10-18T08:49:52.459Z,2016
2017-10-18T08:51:02.879Z,2228
2017-10-18T08:52:13.280Z,2360
2017-10-18T08:53:23.694Z,2312
2017-10-18T08:54:34.108Z,2344
2017-10-18T08:55:44.227Z,2988
2017-10-18T08:56:54.301Z,3244
2017-10-18T08:58:04.730Z,3040
2017-10-18T08:59:15.141Z,3036
2017-10-18T09:00:25.211Z,3272
2017-10-18T09:01:35.654Z,3584
2017-10-18T09:02:46.089Z,3676
2017-10-18T09:03:56.493Z,3568
2017-10-18T09:05:06.911Z,3808
2017-10-18T09:06:17.300Z,3660
2017-10-18T09:07:27.370Z,3292
2017-10-18T09:08:37.112Z,3532
2017-10-18T09:09:47.194Z,3752
2017-10-18T09:10:57.269Z,3888
2017-10-18T09:12:07.691Z,3900
2017-10-18T09:13:17.845Z,3752
2017-10-18T09:14:28.259Z,3708
2017-10-18T09:15:38.660Z,3796
2017-10-18T09:16:49.062Z,3860
2017-10-18T09:17:59.469Z,3880
2017-10-18T09:19:09.217Z,3804
2017-10-18T09:20:20.226Z,3676
2017-10-18T09:21:30.313Z,3572
2017-10-18T09:22:40.709Z,3524
2017-10-18T09:23:50.456Z,3240
2017-10-18T09:25:00.526Z,2600
2017-10-18T09:26:10.629Z,2340
2017-10-18T09:27:20.727Z,2420
2017-10-18T09:28:31.143Z,2600
2017-10-18T09:29:41.555Z,2600
2017-10-18T09:30:50.965Z,2636
2017-10-18T09:32:01.364Z,3084
2017-10-18T09:33:11.782Z,3264
2017-10-18T09:34:22.193Z,3348
2017-10-18T09:35:32.298Z,3324
2017-10-18T09:36:42.787Z,3332
2017-10-18T09:37:52.877Z,3172
2017-10-18T09:39:02.955Z,2916
2017-10-18T09:40:13.573Z,3420
2017-10-18T09:41:24.355Z,3676
2017-10-18T09:42:35.261Z,3724
2017-10-18T09:43:45.342Z,3712
2017-10-18T09:44:55.768Z,3664
2017-10-18T09:46:06.210Z,3492
2017-10-18T09:47:16.632Z,3252
2017-10-18T09:48:26.759Z,3244
2017-10-18T09:49:37.174Z,3552
2017-10-18T09:50:47.573Z,3720
2017-10-18T09:51:57.986Z,3648
2017-10-18T09:53:08.410Z,3624
2017-10-18T09:54:18.886Z,3544
2017-10-18T09:55:29.443Z,3568
2017-10-18T09:56:39.865Z,3584
2017-10-18T09:57:50.271Z,3696
2017-10-18T09:59:00.353Z,3912
2017-10-18T10:00:10.861Z,3904
2017-10-18T10:01:20.612Z,4356
2017-10-18T10:02:30.352Z,4408
2017-10-18T10:03:41.784Z,4492
2017-10-18T10:04:51.883Z,4868
2017-10-18T10:06:02.365Z,5036
2017-10-18T10:07:12.770Z,5256
2017-10-18T10:08:23.232Z,5704
2017-10-18T10:09:33.651Z,6516
2017-10-18T10:10:44.052Z,7040
2017-10-18T10:11:54.208Z,6500
2017-10-18T10:13:04.631Z,6028
2017-10-18T10:14:15.085Z,6572
2017-10-18T10:15:25.533Z,6360
2017-10-18T10:16:35.952Z,6168
2017-10-18T10:17:46.400Z,6764
2017-10-18T10:18:56.830Z,6052
2017-10-18T10:20:08.465Z,6052
2017-10-18T10:21:18.878Z,6628
2017-10-18T10:22:29.357Z,7152
2017-10-18T10:23:39.831Z,7164
2017-10-18T10:24:50.262Z,6344
2017-10-18T10:26:00.352Z,6068
2017-10-18T10:27:10.779Z,7024
2017-10-18T10:28:20.876Z,6612
2017-10-18T10:29:31.349Z,7092
2017-10-18T10:30:41.770Z,7352
2017-10-18T10:31:51.880Z,7016
2017-10-18T10:33:02.370Z,7024
2017-10-18T10:34:12.820Z,6692
2017-10-18T10:35:23.296Z,6612
2017-10-18T10:36:33.390Z,6544
2017-10-18T10:37:43.460Z,6180
2017-10-18T10:38:53.874Z,6296
2017-10-18T10:40:04.301Z,6164
2017-10-18T10:41:14.763Z,6400
2017-10-18T10:42:24.850Z,6720
2017-10-18T10:43:34.931Z,6672
2017-10-18T10:44:45.390Z,5964
2017-10-18T10:45:55.146Z,5888
2017-10-18T10:47:05.618Z,6340
2017-10-18T10:48:16.036Z,6336
2017-10-18T10:49:26.122Z,6040
2017-10-18T10:50:36.607Z,6136
2017-10-18T10:51:47.043Z,6516
2017-10-18T10:52:57.519Z,6700
2017-10-18T10:54:07.962Z,6772
2017-10-18T10:55:18.380Z,6316
2017-10-18T10:56:28.460Z,6624
2017-10-18T10:57:38.868Z,6528
2017-10-18T10:58:49.375Z,6828
2017-10-18T10:59:59.465Z,6648
2017-10-18T11:01:09.891Z,6576
2017-10-18T11:02:20.296Z,6520
2017-10-18T11:03:30.402Z,6732
2017-10-18T11:04:40.871Z,6788
2017-10-18T11:05:51.274Z,6848
2017-10-18T11:07:01.694Z,6588
2017-10-18T11:08:12.127Z,6564
2017-10-18T11:09:22.570Z,6636
2017-10-18T11:10:33.053Z,6644
2017-10-18T11:11:42.818Z,6840
2017-10-18T11:12:53.231Z,6792
2017-10-18T11:14:03.655Z,6972
2017-10-18T11:15:14.076Z,7208
2017-10-18T11:16:24.578Z,7300
2017-10-18T11:17:34.669Z,7316
2017-10-18T11:18:45.107Z,7288
2017-10-18T11:19:55.520Z,7312
2017-10-18T11:21:05.944Z,7336
2017-10-18T11:22:16.412Z,7348
2017-10-18T11:23:26.509Z,7420
2017-10-18T11:24:36.948Z,7396
2017-10-18T11:25:47.366Z,7004
2017-10-18T11:26:58.545Z,7156
2017-10-18T11:28:09.319Z,7156
2017-10-18T11:29:19.417Z,7080
2017-10-18T11:30:29.843Z,7208
2017-10-18T11:31:40.286Z,7300
2017-10-18T11:32:50.045Z,6804
2017-10-18T11:34:00.467Z,6592
2017-10-18T11:35:10.900Z,6948
2017-10-18T11:36:20.977Z,7036
2017-10-18T11:37:31.378Z,7288
2017-10-18T11:38:41.493Z,7508
2017-10-18T11:39:51.640Z,7280
2017-10-18T11:41:02.055Z,7360
2017-10-18T11:42:12.497Z,7392
2017-10-18T11:43:22.923Z,7232
2017-10-18T11:44:33.323Z,7108
2017-10-18T11:45:43.425Z,7012
2017-10-18T11:46:53.522Z,6756
2017-10-18T11:48:03.939Z,6936
2017-10-18T11:49:14.418Z,6964
2017-10-18T11:50:24.875Z,6924
2017-10-18T11:51:35.332Z,7032
2017-10-18T11:52:45.415Z,7064
2017-10-18T11:53:55.830Z,6704
2017-10-18T11:55:06.257Z,6660
2017-10-18T11:56:16.665Z,6924
2017-10-18T11:57:27.099Z,7016
2017-10-18T11:58:37.570Z,6660
2017-10-18T11:59:48.002Z,6228
2017-10-18T12:00:58.392Z,6300
2017-10-18T12:02:08.820Z,6456
2017-10-18T12:03:18.904Z,7056
2017-10-18T12:04:29.344Z,7108
2017-10-18T12:05:39.422Z,7240
2017-10-18T12:06:49.853Z,7276
2017-10-18T12:08:00.280Z,7252
2017-10-18T12:09:10.707Z,7060
2017-10-18T12:10:21.351Z,7000
2017-10-18T12:11:31.765Z,7012
2017-10-18T12:12:41.861Z,6916
2017-10-18T12:13:52.313Z,6752
2017-10-18T12:15:02.785Z,6932
2017-10-18T12:16:13.195Z,6988
2017-10-18T12:17:23.630Z,6820
2017-10-18T12:18:34.050Z,6836
2017-10-18T12:19:44.140Z,6740
2017-10-18T12:20:54.281Z,6784
2017-10-18T12:22:04.698Z,6056
2017-10-18T12:23:15.149Z,6420
2017-10-18T12:24:25.214Z,6184
2017-10-18T12:25:35.686Z,6596
2017-10-18T12:26:45.862Z,6332
2017-10-18T12:27:55.960Z,6352
2017-10-18T12:29:06.384Z,6376
2017-10-18T12:30:16.859Z,6636
2017-10-18T12:31:27.276Z,6640
2017-10-18T12:32:37.776Z,6484
2017-10-18T12:33:48.219Z,6328
2017-10-18T12:34:58.635Z,6352
2017-10-18T12:36:09.026Z,6388
2017-10-18T12:37:19.435Z,6424
2017-10-18T12:38:29.269Z,6388
2017-10-18T12:39:39.696Z,6432
2017-10-18T12:40:50.406Z,6140
2017-10-18T12:42:00.836Z,6364
2017-10-18T12:43:11.285Z,6364
2017-10-18T12:44:21.771Z,6372
2017-10-18T12:45:32.194Z,6184
2017-10-18T12:46:42.627Z,6108
2017-10-18T12:47:53.030Z,6268
2017-10-18T12:49:03.129Z,6224
2017-10-18T12:50:13.660Z,6192
2017-10-18T12:51:24.077Z,6216
2017-10-18T12:52:34.513Z,5932
2017-10-18T12:53:44.924Z,5772
2017-10-18T12:54:55.363Z,6024
2017-10-18T12:56:05.528Z,6088
2017-10-18T12:57:15.642Z,5896
2017-10-18T12:58:25.756Z,5972
2017-10-18T12:59:36.195Z,5784
2017-10-18T13:00:46.353Z,5124
2017-10-18T13:01:56.184Z,4668
2017-10-18T13:03:06.616Z,4228
2017-10-18T13:04:17.040Z,4008
2017-10-18T13:05:26.481Z,5012
2017-10-18T13:06:36.919Z,4580
2017-10-18T13:07:47.337Z,3344
2017-10-18T13:08:57.733Z,3276
2017-10-18T13:10:08.402Z,3696
2017-10-18T13:11:18.494Z,3912
2017-10-18T13:12:28.907Z,4420
2017-10-18T13:13:39.055Z,5084
2017-10-18T13:14:49.199Z,5156
2017-10-18T13:15:59.003Z,5316
2017-10-18T13:17:09.419Z,5240
2017-10-18T13:18:19.885Z,4968
2017-10-18T13:19:30.371Z,4532
2017-10-18T13:20:40.795Z,3908
2017-10-18T13:21:51.196Z,3424
2017-10-18T13:23:01.609Z,3044
2017-10-18T13:24:12.025Z,3364
2017-10-18T13:25:37.089Z,4536
2017-10-18T13:26:48.175Z,4892
2017-10-18T13:27:58.610Z,5156
2017-10-18T13:29:09.103Z,5044
2017-10-18T13:30:19.543Z,5300
2017-10-18T13:31:30.062Z,5468
2017-10-18T13:32:40.772Z,5476
2017-10-18T13:33:51.257Z,5468
2017-10-18T13:35:01.707Z,5436
2017-10-18T13:36:12.189Z,5640
2017-10-18T13:37:22.697Z,5688
2017-10-18T13:38:33.170Z,5752
2017-10-18T13:39:43.611Z,5740
2017-10-18T13:40:54.073Z,5644
2017-10-18T13:42:04.185Z,5508
2017-10-18T13:43:14.368Z,5268
2017-10-18T13:44:24.514Z,4896
2017-10-18T13:45:34.960Z,4792
2017-10-18T13:46:45.434Z,4952
2017-10-18T13:47:55.882Z,5128
2017-10-18T13:49:05.972Z,5184
2017-10-18T13:50:16.089Z,5200
2017-10-18T13:51:26.591Z,5180
2017-10-18T13:52:37.049Z,5088
2017-10-18T13:53:47.519Z,4968
2017-10-18T13:54:57.975Z,4908
2017-10-18T13:56:08.447Z,4852
2017-10-18T13:57:18.910Z,4744
2017-10-18T13:58:29.007Z,4656
2017-10-18T13:59:39.021Z,4584
2017-10-18T14:00:49.164Z,4488
2017-10-18T14:01:59.261Z,4396
2017-10-18T14:03:09.355Z,4272
2017-10-18T14:04:19.433Z,4176
2017-10-18T14:05:29.535Z,4072
2017-10-18T14:06:39.979Z,3996
2017-10-18T14:07:49.751Z,3928
2017-10-18T14:08:59.851Z,3904
2017-10-18T14:10:10.279Z,3844
2017-10-18T14:11:20.690Z,3748
2017-10-18T14:12:31.187Z,3660
2017-10-18T14:13:41.613Z,3588
2017-10-18T14:14:52.027Z,3492
2017-10-18T14:16:02.434Z,3368
2017-10-18T14:17:12.538Z,3200
2017-10-18T14:18:22.966Z,3280
2017-10-18T14:19:33.380Z,3096
2017-10-18T14:20:43.820Z,2964
2017-10-18T14:21:54.248Z,2980
2017-10-18T14:23:04.699Z,3016
2017-10-18T14:24:15.188Z,3068
2017-10-18T14:25:25.305Z,3028
2017-10-18T14:26:35.718Z,3000
2017-10-18T14:27:46.115Z,2968
2017-10-18T14:28:56.544Z,2932
2017-10-18T14:30:07.040Z,2924
2017-10-18T14:31:17.473Z,2904
2017-10-18T14:32:27.897Z,2852
2017-10-18T14:33:38.306Z,2744
2017-10-18T14:34:48.741Z,2548
2017-10-18T14:36:00.204Z,2600
2017-10-18T14:37:10.625Z,2600
2017-10-18T14:38:21.030Z,2536
2017-10-18T14:39:31.120Z,2484
2017-10-18T14:40:40.889Z,2432
2017-10-18T14:41:51.310Z,2384
2017-10-18T14:43:01.718Z,2368
2017-10-18T14:44:12.153Z,2348
2017-10-18T14:45:21.925Z,2320
2017-10-18T14:46:32.410Z,2304
2017-10-18T14:47:42.541Z,2288
2017-10-18T14:48:52.298Z,2248
2017-10-18T14:50:02.385Z,2204
2017-10-18T14:51:12.796Z,2156
2017-10-18T14:52:23.221Z,2100
2017-10-18T14:53:33.713Z,2044
2017-10-18T14:54:44.145Z,1996
2017-10-18T14:55:54.563Z,1952
2017-10-18T14:57:04.999Z,1916
2017-10-18T14:58:15.414Z,1840
2017-10-18T14:59:25.879Z,1736
2017-10-18T15:00:36.291Z,1692
2017-10-18T15:01:46.728Z,1668
2017-10-18T15:02:57.143Z,1612
2017-10-18T15:04:07.219Z,1536
2017-10-18T15:05:17.692Z,1500
2017-10-18T15:06:27.789Z,1480
2017-10-18T15:07:38.217Z,1428
2017-10-18T15:08:48.641Z,1376
2017-10-18T15:09:59.086Z,1364
2017-10-18T15:11:09.551Z,1348
2017-10-18T15:12:19.978Z,1312
2017-10-18T15:13:30.394Z,1284
2017-10-18T15:14:40.812Z,1248
2017-10-18T15:15:51.248Z,1208
2017-10-18T15:17:01.069Z,1152
2017-10-18T15:18:11.167Z,1108
2017-10-18T15:19:21.604Z,1068
2017-10-18T15:20:31.686Z,1028
2017-10-18T15:21:42.147Z,988
2017-10-18T15:22:52.280Z,944
2017-10-18T15:24:02.374Z,900
2017-10-18T15:25:12.456Z,860
2017-10-18T15:26:22.872Z,828
2017-10-18T15:27:33.318Z,796
2017-10-18T15:28:43.814Z,768
2017-10-18T15:29:54.251Z,736
2017-10-18T15:31:04.679Z,704
2017-10-18T15:32:15.102Z,664
2017-10-18T15:33:25.632Z,628
2017-10-18T15:34:35.784Z,596
2017-10-18T15:35:45.903Z,568
2017-10-18T15:36:56.013Z,528
2017-10-18T15:38:06.437Z,488
2017-10-18T15:39:16.859Z,464
2017-10-18T15:40:27.272Z,444
2017-10-18T15:41:37.940Z,424
2017-10-18T15:42:48.378Z,408
2017-10-18T15:43:58.841Z,388
2017-10-18T15:45:08.941Z,368
2017-10-18T15:46:19.368Z,344
2017-10-18T15:47:29.806Z,328
2017-10-18T15:48:40.223Z,304
2017-10-18T15:49:50.658Z,284
2017-10-18T15:51:00.761Z,264
2017-10-18T15:52:11.245Z,244
2017-10-18T15:53:21.699Z,224
2017-10-18T15:54:32.159Z,204
2017-10-18T15:55:42.606Z,188
2017-10-18T15:56:52.790Z,164
2017-10-18T15:58:03.376Z,148
2017-10-18T15:59:13.460Z,132
2017-10-18T16:00:23.895Z,120
2017-10-18T16:01:34.312Z,104
2017-10-18T16:02:44.404Z,92
2017-10-18T16:03:54.900Z,84
2017-10-18T16:05:05.339Z,68
2017-10-18T16:06:15.756Z,60
2017-10-18T16:07:26.175Z,52
2017-10-18T16:08:36.272Z,44
2017-10-18T16:09:46.750Z,36
2017-10-18T16:10:57.179Z,28
2017-10-18T16:12:07.615Z,24
2017-10-18T16:13:18.026Z,20
2017-10-18T16:14:28.134Z,16
2017-10-18T16:15:38.604Z,16
2017-10-18T16:16:49.050Z,12
2017-10-18T16:17:59.498Z,8
2017-10-18T16:19:09.938Z,8
2017-10-18T16:20:20.373Z,4
2017-10-18T16:21:31.002Z,4
2017-10-18T16:22:41.416Z,4
2017-10-18T16:23:51.505Z,4
2017-10-18T16:25:01.935Z,4
2017-10-18T16:26:11.723Z,0
2017-10-18T16:27:22.203Z,0
2017-10-18T16:28:32.633Z,4
2017-10-18T16:29:43.057Z,0
2017-10-18T16:30:53.498Z,0
2017-10-18T16:32:03.940Z,0
2017-10-18T16:33:14.384Z,0
2017-10-18T16:34:24.800Z,0
2017-10-18T16:35:35.212Z,0
2017-10-18T16:36:45.642Z,0
2017-10-18T16:37:56.072Z,0
2017-10-18T16:39:06.501Z,0
2017-10-18T16:40:16.595Z,0
2017-10-18T16:41:27.008Z,0